sensor_id;sensor_type;location;lat;lon;timestamp;pressure;altitude;pressure_sealevel;temperature;humidity
58534;BME280;44109;52.398;7.024;2023-04-16T00:01:21;101797.56;;;8.75;100.00
58534;BME280;44109;52.398;7.024;2023-04-16T00:03:49;101798.81;;;8.86;100.00
58534;BME280;44109;52.398;7.024;2023-04-16T00:06:16;101800.16;;;8.80;100.00
58534;BME280;44109;52.398;7.024;2023-04-16T00:08:44;101793.81;;;9.09;100.00
58534;BME280;44109;52.398;7.024;2023-04-16T00:11:13;101796.28;;;8.73;100.00
58534;BME280;44109;52.398;7.024;2023-04-16T00:13:41;101771.91;;;8.66;100.00
58534;BME280;44109;52.398;7.024;2023-04-16T00:16:10;101768.09;;;8.50;100.00
58534;BME280;44109;52.398;7.024;2023-04-16T00:18:37;101788.81;;;8.73;100.00
58534;BME280;44109;52.398;7.024;2023-04-16T00:21:06;101800.91;;;8.60;100.00
58534;BME280;44109;52.398;7.024;2023-04-16T00:23:34;101811.78;;;8.65;100.00
58534;BME280;44109;52.398;7.024;2023-04-16T00:26:03;101796.88;;;8.49;100.00
58534;BME280;44109;52.398;7.024;2023-04-16T00:28:32;101803.06;;;8.54;100.00
58534;BME280;44109;52.398;7.024;2023-04-16T00:31:00;101796.91;;;8.78;100.00
58534;BME280;44109;52.398;7.024;2023-04-16T00:33:28;101792.84;;;8.76;100.00
58534;BME280;44109;52.398;7.024;2023-04-16T00:35:55;101800.25;;;8.93;100.00
58534;BME280;44109;52.398;7.024;2023-04-16T00:38:23;101771.44;;;8.94;100.00
58534;BME280;44109;52.398;7.024;2023-04-16T00:40:55;101782.59;;;8.76;100.00
58534;BME280;44109;52.398;7.024;2023-04-16T00:43:24;101819.22;;;9.03;100.00
58534;BME280;44109;52.398;7.024;2023-04-16T00:45:55;101799.25;;;8.97;100.00
58534;BME280;44109;52.398;7.024;2023-04-16T00:48:23;101815.59;;;9.11;100.00
58534;BME280;44109;52.398;7.024;2023-04-16T00:50:53;101819.78;;;9.17;100.00
58534;BME280;44109;52.398;7.024;2023-04-16T00:53:21;101823.25;;;9.14;100.00
58534;BME280;44109;52.398;7.024;2023-04-16T00:55:50;101822.28;;;9.10;100.00
58534;BME280;44109;52.398;7.024;2023-04-16T00:58:18;101827.25;;;9.25;100.00
58534;BME280;44109;52.398;7.024;2023-04-16T01:00:46;101826.97;;;9.39;100.00
58534;BME280;44109;52.398;7.024;2023-04-16T01:03:16;101831.69;;;9.18;100.00
58534;BME280;44109;52.398;7.024;2023-04-16T01:05:44;101827.25;;;9.25;100.00
58534;BME280;44109;52.398;7.024;2023-04-16T01:08:15;101836.28;;;9.34;100.00
58534;BME280;44109;52.398;7.024;2023-04-16T01:10:43;101826.56;;;9.28;100.00
58534;BME280;44109;52.398;7.024;2023-04-16T01:13:11;101833.13;;;9.24;100.00
58534;BME280;44109;52.398;7.024;2023-04-16T01:15:39;101829.41;;;9.20;100.00
58534;BME280;44109;52.398;7.024;2023-04-16T01:18:13;101823.41;;;9.18;100.00
58534;BME280;44109;52.398;7.024;2023-04-16T01:20:42;101836.84;;;9.28;100.00
58534;BME280;44109;52.398;7.024;2023-04-16T01:23:10;101840.13;;;9.21;100.00
58534;BME280;44109;52.398;7.024;2023-04-16T01:25:38;101846.63;;;9.25;100.00
58534;BME280;44109;52.398;7.024;2023-04-16T01:28:06;101827.47;;;9.11;100.00
58534;BME280;44109;52.398;7.024;2023-04-16T01:30:33;101841.44;;;9.24;100.00
58534;BME280;44109;52.398;7.024;2023-04-16T01:33:01;101829.25;;;9.16;100.00
58534;BME280;44109;52.398;7.024;2023-04-16T01:35:29;101837.56;;;9.16;100.00
58534;BME280;44109;52.398;7.024;2023-04-16T01:37:58;101851.09;;;9.38;100.00
58534;BME280;44109;52.398;7.024;2023-04-16T01:40:26;101850.53;;;9.24;100.00
58534;BME280;44109;52.398;7.024;2023-04-16T01:42:53;101829.13;;;9.33;100.00
58534;BME280;44109;52.398;7.024;2023-04-16T01:45:21;101843.06;;;9.66;100.00
58534;BME280;44109;52.398;7.024;2023-04-16T01:47:49;101846.47;;;9.72;100.00
58534;BME280;44109;52.398;7.024;2023-04-16T01:50:19;101846.13;;;9.74;100.00
58534;BME280;44109;52.398;7.024;2023-04-16T01:52:48;101846.31;;;9.48;100.00
58534;BME280;44109;52.398;7.024;2023-04-16T01:55:17;101850.44;;;9.42;100.00
58534;BME280;44109;52.398;7.024;2023-04-16T01:57:45;101849.63;;;9.62;100.00
58534;BME280;44109;52.398;7.024;2023-04-16T02:00:13;101839.97;;;9.47;100.00
58534;BME280;44109;52.398;7.024;2023-04-16T02:02:41;101840.91;;;9.51;100.00
58534;BME280;44109;52.398;7.024;2023-04-16T02:05:09;101843.44;;;9.35;100.00
58534;BME280;44109;52.398;7.024;2023-04-16T02:07:36;101848.63;;;9.46;100.00
58534;BME280;44109;52.398;7.024;2023-04-16T02:10:05;101843.06;;;9.66;100.00
58534;BME280;44109;52.398;7.024;2023-04-16T02:12:36;101812.72;;;9.49;100.00
58534;BME280;44109;52.398;7.024;2023-04-16T02:15:05;101841.00;;;9.63;100.00
58534;BME280;44109;52.398;7.024;2023-04-16T02:17:33;101833.75;;;9.50;100.00
58534;BME280;44109;52.398;7.024;2023-04-16T02:20:01;101835.63;;;9.79;100.00
58534;BME280;44109;52.398;7.024;2023-04-16T02:22:30;101834.81;;;10.00;100.00
58534;BME280;44109;52.398;7.024;2023-04-16T02:24:58;101836.28;;;9.97;100.00
58534;BME280;44109;52.398;7.024;2023-04-16T02:27:25;101838.16;;;9.72;100.00
58534;BME280;44109;52.398;7.024;2023-04-16T02:29:54;101840.50;;;9.61;100.00
58534;BME280;44109;52.398;7.024;2023-04-16T02:32:22;101839.69;;;9.61;100.00
58534;BME280;44109;52.398;7.024;2023-04-16T02:34:50;101843.88;;;9.67;100.00
58534;BME280;44109;52.398;7.024;2023-04-16T02:37:17;101844.94;;;9.33;100.00
58534;BME280;44109;52.398;7.024;2023-04-16T02:39:45;101839.47;;;9.24;100.00
58534;BME280;44109;52.398;7.024;2023-04-16T02:42:14;101844.03;;;9.50;100.00
58534;BME280;44109;52.398;7.024;2023-04-16T02:44:42;101842.84;;;9.30;100.00
58534;BME280;44109;52.398;7.024;2023-04-16T02:47:11;101841.06;;;9.55;100.00
58534;BME280;44109;52.398;7.024;2023-04-16T02:49:39;101836.66;;;9.75;100.00
58534;BME280;44109;52.398;7.024;2023-04-16T02:52:06;101841.72;;;9.52;100.00
58534;BME280;44109;52.398;7.024;2023-04-16T02:54:34;101852.00;;;9.72;100.00
58534;BME280;44109;52.398;7.024;2023-04-16T02:57:02;101843.56;;;9.69;100.00
58534;BME280;44109;52.398;7.024;2023-04-16T02:59:31;101848.31;;;9.80;100.00
58534;BME280;44109;52.398;7.024;2023-04-16T03:01:58;101847.28;;;9.73;100.00
58534;BME280;44109;52.398;7.024;2023-04-16T03:04:27;101852.94;;;9.76;100.00
58534;BME280;44109;52.398;7.024;2023-04-16T03:06:55;101856.94;;;9.46;100.00
58534;BME280;44109;52.398;7.024;2023-04-16T03:09:23;101857.78;;;9.37;100.00
58534;BME280;44109;52.398;7.024;2023-04-16T03:11:50;101861.03;;;9.39;100.00
58534;BME280;44109;52.398;7.024;2023-04-16T03:14:18;101861.69;;;9.07;100.00
58534;BME280;44109;52.398;7.024;2023-04-16T03:16:46;101861.25;;;9.05;100.00
58534;BME280;44109;52.398;7.024;2023-04-16T03:19:13;101863.47;;;9.11;100.00
58534;BME280;44109;52.398;7.024;2023-04-16T03:21:42;101858.19;;;9.27;100.00
58534;BME280;44109;52.398;7.024;2023-04-16T03:24:10;101864.69;;;9.31;100.00
58534;BME280;44109;52.398;7.024;2023-04-16T03:26:38;101846.75;;;8.99;100.00
58534;BME280;44109;52.398;7.024;2023-04-16T03:29:06;101870.56;;;9.51;100.00
58534;BME280;44109;52.398;7.024;2023-04-16T03:31:33;101861.19;;;9.13;100.00
58534;BME280;44109;52.398;7.024;2023-04-16T03:34:01;101869.25;;;9.27;100.00
58534;BME280;44109;52.398;7.024;2023-04-16T03:36:29;101864.47;;;9.07;100.00
58534;BME280;44109;52.398;7.024;2023-04-16T03:38:58;101870.69;;;9.04;100.00
58534;BME280;44109;52.398;7.024;2023-04-16T03:41:25;101871.59;;;9.17;100.00
58534;BME280;44109;52.398;7.024;2023-04-16T03:43:53;101876.53;;;9.02;100.00
58534;BME280;44109;52.398;7.024;2023-04-16T03:46:21;101869.47;;;9.22;100.00
58534;BME280;44109;52.398;7.024;2023-04-16T03:48:48;101870.00;;;9.36;100.00
58534;BME280;44109;52.398;7.024;2023-04-16T03:51:16;101865.59;;;9.35;100.00
58534;BME280;44109;52.398;7.024;2023-04-16T03:53:43;101868.19;;;9.40;100.00
58534;BME280;44109;52.398;7.024;2023-04-16T03:56:12;101870.00;;;9.36;100.00
58534;BME280;44109;52.398;7.024;2023-04-16T03:58:40;101876.00;;;9.18;100.00
58534;BME280;44109;52.398;7.024;2023-04-16T04:01:08;101878.13;;;9.12;100.00
58534;BME280;44109;52.398;7.024;2023-04-16T04:03:35;101873.03;;;9.23;100.00
58534;BME280;44109;52.398;7.024;2023-04-16T04:06:06;101877.59;;;9.48;100.00
58534;BME280;44109;52.398;7.024;2023-04-16T04:08:34;101883.72;;;9.33;100.00
58534;BME280;44109;52.398;7.024;2023-04-16T04:11:01;101880.34;;;9.27;100.00
58534;BME280;44109;52.398;7.024;2023-04-16T04:13:30;101883.16;;;9.39;100.00
58534;BME280;44109;52.398;7.024;2023-04-16T04:15:58;101891.66;;;9.13;100.00
58534;BME280;44109;52.398;7.024;2023-04-16T04:18:26;101874.22;;;9.13;100.00
58534;BME280;44109;52.398;7.024;2023-04-16T04:20:53;101886.81;;;9.31;100.00
58534;BME280;44109;52.398;7.024;2023-04-16T04:23:21;101890.34;;;9.40;100.00
58534;BME280;44109;52.398;7.024;2023-04-16T04:25:48;101891.00;;;9.08;100.00
58534;BME280;44109;52.398;7.024;2023-04-16T04:28:16;101883.66;;;9.12;100.00
58534;BME280;44109;52.398;7.024;2023-04-16T04:30:45;101898.66;;;9.11;100.00
58534;BME280;44109;52.398;7.024;2023-04-16T04:33:13;101899.28;;;8.78;100.00
58534;BME280;44109;52.398;7.024;2023-04-16T04:35:41;101878.81;;;8.62;100.00
58534;BME280;44109;52.398;7.024;2023-04-16T04:38:08;101895.84;;;8.81;100.00
58534;BME280;44109;52.398;7.024;2023-04-16T04:40:36;101900.88;;;8.79;100.00
58534;BME280;44109;52.398;7.024;2023-04-16T04:43:04;101888.94;;;8.49;100.00
58534;BME280;44109;52.398;7.024;2023-04-16T04:45:31;101903.84;;;8.74;100.00
58534;BME280;44109;52.398;7.024;2023-04-16T04:48:00;101907.34;;;8.36;100.00
58534;BME280;44109;52.398;7.024;2023-04-16T04:50:28;101912.88;;;8.45;100.00
58534;BME280;44109;52.398;7.024;2023-04-16T04:52:56;101876.94;;;8.28;100.00
58534;BME280;44109;52.398;7.024;2023-04-16T04:55:24;101919.44;;;8.79;100.00
58534;BME280;44109;52.398;7.024;2023-04-16T04:57:51;101917.16;;;8.81;100.00
58534;BME280;44109;52.398;7.024;2023-04-16T05:00:19;101916.78;;;9.00;100.00
58534;BME280;44109;52.398;7.024;2023-04-16T05:02:47;101923.34;;;8.86;100.00
58534;BME280;44109;52.398;7.024;2023-04-16T05:05:16;101934.84;;;8.42;100.00
58534;BME280;44109;52.398;7.024;2023-04-16T05:07:44;101932.03;;;8.24;100.00
58534;BME280;44109;52.398;7.024;2023-04-16T05:10:11;101941.78;;;8.30;100.00
58534;BME280;44109;52.398;7.024;2023-04-16T05:12:39;101937.41;;;8.47;100.00
58534;BME280;44109;52.398;7.024;2023-04-16T05:15:08;101940.34;;;8.50;100.00
58534;BME280;44109;52.398;7.024;2023-04-16T05:17:36;101944.28;;;8.41;100.00
58534;BME280;44109;52.398;7.024;2023-04-16T05:20:04;101948.78;;;8.54;100.00
58534;BME280;44109;52.398;7.024;2023-04-16T05:22:34;101952.53;;;8.58;100.00
58534;BME280;44109;52.398;7.024;2023-04-16T05:25:02;101950.59;;;8.50;100.00
58534;BME280;44109;52.398;7.024;2023-04-16T05:27:30;101955.78;;;8.51;100.00
58534;BME280;44109;52.398;7.024;2023-04-16T05:29:57;101946.69;;;8.51;100.00
58534;BME280;44109;52.398;7.024;2023-04-16T05:32:25;101916.28;;;8.51;100.00
58534;BME280;44109;52.398;7.024;2023-04-16T05:34:53;101954.59;;;8.87;100.00
58534;BME280;44109;52.398;7.024;2023-04-16T05:37:20;101958.19;;;8.79;100.00
58534;BME280;44109;52.398;7.024;2023-04-16T05:39:49;101961.13;;;8.74;100.00
58534;BME280;44109;52.398;7.024;2023-04-16T05:42:17;101926.78;;;8.75;100.00
58534;BME280;44109;52.398;7.024;2023-04-16T05:44:45;101963.94;;;9.12;100.00
58534;BME280;44109;52.398;7.024;2023-04-16T05:47:12;101969.69;;;8.89;100.00
58534;BME280;44109;52.398;7.024;2023-04-16T05:49:40;101970.34;;;8.95;100.00
58534;BME280;44109;52.398;7.024;2023-04-16T05:52:08;101966.41;;;9.05;100.00
58534;BME280;44109;52.398;7.024;2023-04-16T05:54:36;101975.19;;;9.07;100.00
58534;BME280;44109;52.398;7.024;2023-04-16T05:57:05;101952.53;;;9.13;100.00
58534;BME280;44109;52.398;7.024;2023-04-16T05:59:32;101914.44;;;8.72;100.00
58534;BME280;44109;52.398;7.024;2023-04-16T06:02:00;101975.38;;;9.02;100.00
58534;BME280;44109;52.398;7.024;2023-04-16T06:04:28;101959.44;;;8.90;100.00
58534;BME280;44109;52.398;7.024;2023-04-16T06:06:56;101978.81;;;9.37;100.00
58534;BME280;44109;52.398;7.024;2023-04-16T06:09:23;101983.47;;;9.54;100.00
58534;BME280;44109;52.398;7.024;2023-04-16T06:11:51;101975.25;;;9.66;100.00
58534;BME280;44109;52.398;7.024;2023-04-16T06:14:20;101973.56;;;9.44;100.00
58534;BME280;44109;52.398;7.024;2023-04-16T06:16:48;101984.22;;;9.33;100.00
58534;BME280;44109;52.398;7.024;2023-04-16T06:19:16;101975.63;;;9.56;100.00
58534;BME280;44109;52.398;7.024;2023-04-16T06:21:43;101981.81;;;9.23;100.00
58534;BME280;44109;52.398;7.024;2023-04-16T06:24:11;101969.66;;;9.45;100.00
58534;BME280;44109;52.398;7.024;2023-04-16T06:26:39;101988.31;;;9.27;100.00
58534;BME280;44109;52.398;7.024;2023-04-16T06:29:06;101997.41;;;9.36;100.00
58534;BME280;44109;52.398;7.024;2023-04-16T06:31:36;102003.84;;;9.49;100.00
58534;BME280;44109;52.398;7.024;2023-04-16T06:34:03;102000.22;;;9.19;100.00
58534;BME280;44109;52.398;7.024;2023-04-16T06:36:31;102005.56;;;9.62;100.00
58534;BME280;44109;52.398;7.024;2023-04-16T06:38:58;102005.44;;;9.59;100.00
58534;BME280;44109;52.398;7.024;2023-04-16T06:41:26;102001.69;;;9.63;100.00
58534;BME280;44109;52.398;7.024;2023-04-16T06:43:54;102010.94;;;9.68;100.00
58534;BME280;44109;52.398;7.024;2023-04-16T06:46:21;102011.06;;;9.42;100.00
58534;BME280;44109;52.398;7.024;2023-04-16T06:48:50;102017.00;;;9.61;100.00
58534;BME280;44109;52.398;7.024;2023-04-16T06:51:18;102024.31;;;9.65;100.00
58534;BME280;44109;52.398;7.024;2023-04-16T06:53:46;102019.09;;;9.94;100.00
58534;BME280;44109;52.398;7.024;2023-04-16T06:56:15;102011.81;;;9.80;100.00
58534;BME280;44109;52.398;7.024;2023-04-16T06:58:42;102015.56;;;9.55;100.00
58534;BME280;44109;52.398;7.024;2023-04-16T07:01:10;102013.59;;;9.85;100.00
58534;BME280;44109;52.398;7.024;2023-04-16T07:03:38;102015.19;;;10.15;100.00
58534;BME280;44109;52.398;7.024;2023-04-16T07:06:07;102021.81;;;10.02;100.00
58534;BME280;44109;52.398;7.024;2023-04-16T07:08:35;102024.06;;;10.09;100.00
58534;BME280;44109;52.398;7.024;2023-04-16T07:11:03;102027.78;;;10.13;100.00
58534;BME280;44109;52.398;7.024;2023-04-16T07:13:31;102024.53;;;10.11;100.00
58534;BME280;44109;52.398;7.024;2023-04-16T07:15:58;102020.22;;;10.43;100.00
58534;BME280;44109;52.398;7.024;2023-04-16T07:18:26;102019.69;;;10.29;100.00
58534;BME280;44109;52.398;7.024;2023-04-16T07:20:54;102030.06;;;10.11;100.00
58534;BME280;44109;52.398;7.024;2023-04-16T07:23:23;102029.03;;;10.24;100.00
58534;BME280;44109;52.398;7.024;2023-04-16T07:25:50;102030.47;;;10.01;100.00
58534;BME280;44109;52.398;7.024;2023-04-16T07:28:18;102034.41;;;10.00;100.00
58534;BME280;44109;52.398;7.024;2023-04-16T07:30:47;102031.69;;;10.12;100.00
58534;BME280;44109;52.398;7.024;2023-04-16T07:33:14;102030.66;;;9.96;100.00
58534;BME280;44109;52.398;7.024;2023-04-16T07:35:42;102024.97;;;9.92;100.00
58534;BME280;44109;52.398;7.024;2023-04-16T07:38:10;102032.91;;;10.02;100.00
58534;BME280;44109;52.398;7.024;2023-04-16T07:40:39;102035.91;;;10.18;100.00
58534;BME280;44109;52.398;7.024;2023-04-16T07:43:08;102037.53;;;10.19;100.00
58534;BME280;44109;52.398;7.024;2023-04-16T07:45:36;102037.75;;;10.35;100.00
58534;BME280;44109;52.398;7.024;2023-04-16T07:48:04;102035.66;;;10.53;100.00
58534;BME280;44109;52.398;7.024;2023-04-16T07:50:32;102024.28;;;11.00;100.00
58534;BME280;44109;52.398;7.024;2023-04-16T07:53:00;102048.72;;;10.73;100.00
58534;BME280;44109;52.398;7.024;2023-04-16T07:55:27;102040.00;;;10.41;100.00
58534;BME280;44109;52.398;7.024;2023-04-16T07:57:56;102050.38;;;10.86;100.00
58534;BME280;44109;52.398;7.024;2023-04-16T08:00:24;102053.31;;;10.69;100.00
58534;BME280;44109;52.398;7.024;2023-04-16T08:02:52;102048.56;;;11.03;100.00
58534;BME280;44109;52.398;7.024;2023-04-16T08:05:20;102049.50;;;11.40;100.00
58534;BME280;44109;52.398;7.024;2023-04-16T08:07:47;102054.16;;;11.15;100.00
58534;BME280;44109;52.398;7.024;2023-04-16T08:10:15;102062.44;;;11.03;100.00
58534;BME280;44109;52.398;7.024;2023-04-16T08:12:43;102059.34;;;11.62;100.00
58534;BME280;44109;52.398;7.024;2023-04-16T08:15:12;102059.38;;;11.86;100.00
58534;BME280;44109;52.398;7.024;2023-04-16T08:17:40;102064.66;;;12.40;100.00
58534;BME280;44109;52.398;7.024;2023-04-16T08:20:08;102073.03;;;12.16;100.00
58534;BME280;44109;52.398;7.024;2023-04-16T08:22:36;102068.56;;;12.80;100.00
58534;BME280;44109;52.398;7.024;2023-04-16T08:25:04;102074.50;;;12.38;100.00
58534;BME280;44109;52.398;7.024;2023-04-16T08:27:33;102072.38;;;12.47;100.00
58534;BME280;44109;52.398;7.024;2023-04-16T08:30:00;102075.81;;;12.68;100.00
58534;BME280;44109;52.398;7.024;2023-04-16T08:32:30;102073.16;;;12.19;100.00
58534;BME280;44109;52.398;7.024;2023-04-16T08:34:58;102077.47;;;12.57;100.00
58534;BME280;44109;52.398;7.024;2023-04-16T08:37:26;102078.34;;;13.02;100.00
58534;BME280;44109;52.398;7.024;2023-04-16T08:39:54;102084.22;;;12.84;100.00
58534;BME280;44109;52.398;7.024;2023-04-16T08:42:33;102085.31;;;12.27;100.00
58534;BME280;44109;52.398;7.024;2023-04-16T08:45:07;102082.75;;;13.03;100.00
58534;BME280;44109;52.398;7.024;2023-04-16T08:47:45;102076.22;;;12.42;100.00
58534;BME280;44109;52.398;7.024;2023-04-16T08:50:14;102091.31;;;12.82;100.00
58534;BME280;44109;52.398;7.024;2023-04-16T08:52:45;102104.28;;;12.90;100.00
58534;BME280;44109;52.398;7.024;2023-04-16T08:55:18;102092.66;;;12.60;100.00
58534;BME280;44109;52.398;7.024;2023-04-16T08:57:53;102097.81;;;12.86;100.00
58534;BME280;44109;52.398;7.024;2023-04-16T09:00:24;102100.38;;;13.07;100.00
58534;BME280;44109;52.398;7.024;2023-04-16T09:02:56;102095.47;;;12.88;100.00
58534;BME280;44109;52.398;7.024;2023-04-16T09:05:24;102091.22;;;12.78;100.00
58534;BME280;44109;52.398;7.024;2023-04-16T09:07:55;102103.19;;;13.51;100.00
58534;BME280;44109;52.398;7.024;2023-04-16T09:10:24;102100.66;;;13.45;100.00
58534;BME280;44109;52.398;7.024;2023-04-16T09:12:54;102057.31;;;13.32;100.00
58534;BME280;44109;52.398;7.024;2023-04-16T09:15:22;102090.13;;;13.39;100.00
58534;BME280;44109;52.398;7.024;2023-04-16T09:17:51;102083.88;;;12.86;100.00
58534;BME280;44109;52.398;7.024;2023-04-16T09:20:22;102107.63;;;13.67;100.00
58534;BME280;44109;52.398;7.024;2023-04-16T09:22:51;102098.19;;;13.72;100.00
58534;BME280;44109;52.398;7.024;2023-04-16T09:25:20;102108.72;;;13.35;100.00
58534;BME280;44109;52.398;7.024;2023-04-16T09:27:48;102113.69;;;13.41;100.00
58534;BME280;44109;52.398;7.024;2023-04-16T09:30:24;102105.94;;;13.35;100.00
58534;BME280;44109;52.398;7.024;2023-04-16T09:33:12;102117.28;;;13.14;100.00
58534;BME280;44109;52.398;7.024;2023-04-16T09:35:46;102115.53;;;13.50;100.00
58534;BME280;44109;52.398;7.024;2023-04-16T09:38:15;102114.25;;;13.19;100.00
58534;BME280;44109;52.398;7.024;2023-04-16T09:40:43;102120.81;;;13.70;100.00
58534;BME280;44109;52.398;7.024;2023-04-16T09:43:14;102123.00;;;13.77;100.00
58534;BME280;44109;52.398;7.024;2023-04-16T09:45:49;102125.31;;;13.75;100.00
58534;BME280;44109;52.398;7.024;2023-04-16T09:48:27;102123.16;;;13.84;100.00
58534;BME280;44109;52.398;7.024;2023-04-16T09:50:57;102107.25;;;14.52;100.00
58534;BME280;44109;52.398;7.024;2023-04-16T09:53:27;102111.41;;;14.77;98.71
58534;BME280;44109;52.398;7.024;2023-04-16T09:55:56;102119.47;;;14.47;97.78
58534;BME280;44109;52.398;7.024;2023-04-16T09:58:25;102115.59;;;14.67;100.00
58534;BME280;44109;52.398;7.024;2023-04-16T10:00:54;102122.59;;;14.77;98.72
58534;BME280;44109;52.398;7.024;2023-04-16T10:03:30;102131.09;;;14.14;97.86
58534;BME280;44109;52.398;7.024;2023-04-16T10:06:00;102100.19;;;14.23;99.46
58534;BME280;44109;52.398;7.024;2023-04-16T10:08:34;102125.31;;;14.23;99.15
58534;BME280;44109;52.398;7.024;2023-04-16T10:11:02;102125.88;;;13.49;100.00
58534;BME280;44109;52.398;7.024;2023-04-16T10:13:30;102131.88;;;13.67;100.00
58534;BME280;44109;52.398;7.024;2023-04-16T10:15:58;102135.69;;;13.90;100.00
58534;BME280;44109;52.398;7.024;2023-04-16T10:18:28;102127.81;;;14.12;100.00
58534;BME280;44109;52.398;7.024;2023-04-16T10:20:56;102136.19;;;14.28;100.00
58534;BME280;44109;52.398;7.024;2023-04-16T10:23:25;102137.56;;;14.18;100.00
58534;BME280;44109;52.398;7.024;2023-04-16T10:25:54;102117.59;;;13.84;100.00
58534;BME280;44109;52.398;7.024;2023-04-16T10:28:22;102137.00;;;14.12;100.00
58534;BME280;44109;52.398;7.024;2023-04-16T10:30:51;102131.97;;;14.02;100.00
58534;BME280;44109;52.398;7.024;2023-04-16T10:33:21;102140.22;;;14.46;98.18
58534;BME280;44109;52.398;7.024;2023-04-16T10:35:51;102134.56;;;14.97;97.74
58534;BME280;44109;52.398;7.024;2023-04-16T10:38:25;102136.84;;;13.89;100.00
58534;BME280;44109;52.398;7.024;2023-04-16T10:41:02;102139.47;;;13.82;100.00
58534;BME280;44109;52.398;7.024;2023-04-16T10:43:38;102135.53;;;14.34;100.00
58534;BME280;44109;52.398;7.024;2023-04-16T10:46:17;102139.44;;;14.14;100.00
58534;BME280;44109;52.398;7.024;2023-04-16T10:48:46;102136.28;;;14.31;100.00
58534;BME280;44109;52.398;7.024;2023-04-16T10:51:23;102118.69;;;14.82;99.36
58534;BME280;44109;52.398;7.024;2023-04-16T10:54:04;102131.63;;;15.52;92.87
58534;BME280;44109;52.398;7.024;2023-04-16T10:56:46;102110.97;;;14.24;96.18
58534;BME280;44109;52.398;7.024;2023-04-16T10:59:18;102129.97;;;14.34;97.90
58534;BME280;44109;52.398;7.024;2023-04-16T11:01:48;102128.91;;;15.13;96.27
58534;BME280;44109;52.398;7.024;2023-04-16T11:04:33;102127.38;;;15.38;94.39
58534;BME280;44109;52.398;7.024;2023-04-16T11:07:14;102127.19;;;14.50;95.69
58534;BME280;44109;52.398;7.024;2023-04-16T11:09:55;102121.63;;;14.89;96.27
58534;BME280;44109;52.398;7.024;2023-04-16T11:12:26;102129.53;;;15.26;93.37
58534;BME280;44109;52.398;7.024;2023-04-16T11:15:02;102130.59;;;15.17;89.86
58534;BME280;44109;52.398;7.024;2023-04-16T11:17:32;102130.50;;;15.33;88.87
58534;BME280;44109;52.398;7.024;2023-04-16T11:20:04;102137.38;;;15.59;92.05
58534;BME280;44109;52.398;7.024;2023-04-16T11:22:34;102120.75;;;15.46;92.81
58534;BME280;44109;52.398;7.024;2023-04-16T11:25:04;102131.25;;;15.11;93.24
58534;BME280;44109;52.398;7.024;2023-04-16T11:27:32;102122.53;;;14.58;94.29
58534;BME280;44109;52.398;7.024;2023-04-16T11:30:01;102124.47;;;15.12;95.47
58534;BME280;44109;52.398;7.024;2023-04-16T11:32:31;102097.69;;;15.53;89.18
58534;BME280;44109;52.398;7.024;2023-04-16T11:35:00;102119.72;;;16.01;88.43
58534;BME280;44109;52.398;7.024;2023-04-16T11:37:31;102118.84;;;15.51;91.80
58534;BME280;44109;52.398;7.024;2023-04-16T11:40:00;102128.03;;;16.20;86.38
58534;BME280;44109;52.398;7.024;2023-04-16T11:42:31;102127.06;;;15.63;85.46
58534;BME280;44109;52.398;7.024;2023-04-16T11:45:02;102124.66;;;15.84;86.72
58534;BME280;44109;52.398;7.024;2023-04-16T11:47:30;102121.50;;;16.12;87.48
58534;BME280;44109;52.398;7.024;2023-04-16T11:50:17;102124.16;;;16.28;85.18
58534;BME280;44109;52.398;7.024;2023-04-16T11:52:46;102116.88;;;16.23;89.15
58534;BME280;44109;52.398;7.024;2023-04-16T11:55:14;102083.72;;;15.53;82.32
58534;BME280;44109;52.398;7.024;2023-04-16T11:57:43;102126.72;;;15.64;86.11
58534;BME280;44109;52.398;7.024;2023-04-16T12:00:12;102130.13;;;15.15;85.00
58534;BME280;44109;52.398;7.024;2023-04-16T12:02:41;102126.53;;;15.57;86.35
58534;BME280;44109;52.398;7.024;2023-04-16T12:05:27;102129.88;;;15.43;85.28
58534;BME280;44109;52.398;7.024;2023-04-16T12:07:56;102127.88;;;15.02;87.15
58534;BME280;44109;52.398;7.024;2023-04-16T12:10:25;102126.34;;;16.15;84.95
58534;BME280;44109;52.398;7.024;2023-04-16T12:12:55;102126.28;;;15.85;87.73
58534;BME280;44109;52.398;7.024;2023-04-16T12:15:45;102125.81;;;15.60;87.01
58534;BME280;44109;52.398;7.024;2023-04-16T12:18:15;102128.81;;;15.71;84.37
58534;BME280;44109;52.398;7.024;2023-04-16T12:20:44;102130.13;;;15.35;85.51
58534;BME280;44109;52.398;7.024;2023-04-16T12:23:22;102131.56;;;15.90;87.13
58534;BME280;44109;52.398;7.024;2023-04-16T12:25:50;102128.97;;;16.28;81.14
58534;BME280;44109;52.398;7.024;2023-04-16T12:28:33;102129.06;;;15.43;84.40
58534;BME280;44109;52.398;7.024;2023-04-16T12:31:03;102140.00;;;15.29;85.85
58534;BME280;44109;52.398;7.024;2023-04-16T12:33:32;102131.38;;;15.37;85.72
58534;BME280;44109;52.398;7.024;2023-04-16T12:35:59;102133.97;;;15.92;82.05
58534;BME280;44109;52.398;7.024;2023-04-16T12:38:29;102137.88;;;16.10;81.96
58534;BME280;44109;52.398;7.024;2023-04-16T12:40:57;102135.09;;;15.64;81.77
58534;BME280;44109;52.398;7.024;2023-04-16T12:43:27;102134.13;;;15.76;82.33
58534;BME280;44109;52.398;7.024;2023-04-16T12:45:56;102133.13;;;15.45;85.75
58534;BME280;44109;52.398;7.024;2023-04-16T12:48:23;102134.84;;;15.73;85.98
58534;BME280;44109;52.398;7.024;2023-04-16T12:50:52;102137.75;;;16.26;80.68
58534;BME280;44109;52.398;7.024;2023-04-16T12:53:20;102131.75;;;15.78;82.83
58534;BME280;44109;52.398;7.024;2023-04-16T12:55:48;102133.78;;;15.58;85.23
58534;BME280;44109;52.398;7.024;2023-04-16T12:58:16;102128.41;;;16.45;80.44